createdAt,value
2018-03-11T00:01:45.769Z,13.75
2018-03-11T00:04:16.892Z,12.25
2018-03-11T00:06:48.277Z,14.00
2018-03-11T00:09:21.276Z,13.50
2018-03-11T00:11:53.457Z,14.25
2018-03-11T00:14:24.874Z,13.50
2018-03-11T00:16:57.193Z,13.75
2018-03-11T00:19:28.301Z,14.50
2018-03-11T00:21:59.864Z,13.50
2018-03-11T00:24:32.663Z,13.75
2018-03-11T00:27:04.441Z,15.75
2018-03-11T00:29:36.110Z,13.75
2018-03-11T00:32:07.715Z,15.00
2018-03-11T00:34:40.060Z,15.25
2018-03-11T00:37:12.827Z,13.75
2018-03-11T00:39:44.722Z,15.75
2018-03-11T00:42:17.401Z,14.00
2018-03-11T00:44:48.685Z,16.50
2018-03-11T00:47:20.951Z,16.00
2018-03-11T00:49:52.442Z,15.25
2018-03-11T00:52:24.492Z,14.75
2018-03-11T00:54:55.452Z,15.75
2018-03-11T00:57:27.206Z,15.75
2018-03-11T01:00:00.322Z,15.50
2018-03-11T01:02:32.229Z,15.00
2018-03-11T01:05:04.225Z,14.75
2018-03-11T01:07:35.879Z,13.75
2018-03-11T01:10:06.980Z,15.25
2018-03-11T01:12:38.395Z,15.00
2018-03-11T01:15:09.857Z,13.50
2018-03-11T01:17:44.178Z,15.00
2018-03-11T01:20:16.487Z,14.25
2018-03-11T01:22:48.683Z,15.00
2018-03-11T01:25:21.257Z,14.00
2018-03-11T01:27:53.452Z,14.25
2018-03-11T01:30:27.548Z,14.25
2018-03-11T01:32:59.115Z,15.75
2018-03-11T01:35:31.540Z,13.75
2018-03-11T01:38:04.418Z,15.50
2018-03-11T01:40:36.034Z,14.00
2018-03-11T01:43:07.636Z,16.50
2018-03-11T01:45:42.040Z,15.75
2018-03-11T01:48:13.862Z,16.00
2018-03-11T01:50:47.227Z,14.75
2018-03-11T01:53:18.833Z,16.25
2018-03-11T01:55:50.872Z,16.00
2018-03-11T01:58:29.260Z,16.00
2018-03-11T02:01:01.620Z,16.00
2018-03-11T02:03:33.664Z,14.75
2018-03-11T02:06:05.231Z,15.25
2018-03-11T02:08:36.690Z,14.75
2018-03-11T02:11:08.682Z,16.00
2018-03-11T02:13:40.591Z,14.75
2018-03-11T02:16:12.758Z,13.75
2018-03-11T02:21:48.248Z,16.00
2018-03-11T02:24:20.558Z,13.00
2018-03-11T02:26:53.209Z,16.00
2018-03-11T02:29:24.558Z,14.25
2018-03-11T02:31:56.792Z,13.25
2018-03-11T02:34:28.405Z,14.75
2018-03-11T02:36:59.804Z,16.00
2018-03-11T02:39:31.406Z,15.00
2018-03-11T02:42:03.695Z,14.75
2018-03-11T02:44:35.655Z,15.00
2018-03-11T02:47:07.972Z,16.25
2018-03-11T02:49:39.813Z,15.75
2018-03-11T02:52:11.399Z,13.25
2018-03-11T02:54:45.444Z,12.75
2018-03-11T02:57:16.737Z,14.25
2018-03-11T02:59:48.464Z,13.25
2018-03-11T03:02:20.351Z,12.75
2018-03-11T03:04:51.268Z,15.50
2018-03-11T03:07:24.609Z,13.00
2018-03-11T03:09:55.951Z,14.75
2018-03-11T03:12:27.966Z,15.00
2018-03-11T03:14:59.899Z,14.75
2018-03-11T03:17:32.535Z,15.50
2018-03-11T03:20:04.379Z,13.00
2018-03-11T03:22:36.723Z,13.00
2018-03-11T03:25:08.384Z,15.25
2018-03-11T03:27:39.719Z,13.00
2018-03-11T03:30:12.808Z,12.75
2018-03-11T03:32:44.425Z,15.50
2018-03-11T03:35:16.312Z,11.75
2018-03-11T03:37:48.189Z,13.75
2018-03-11T03:40:19.397Z,14.25
2018-03-11T03:42:51.014Z,13.75
2018-03-11T03:45:23.041Z,13.25
2018-03-11T03:47:54.117Z,15.25
2018-03-11T03:50:24.835Z,13.00
2018-03-11T03:52:56.001Z,16.00
2018-03-11T03:55:27.413Z,13.75
2018-03-11T03:57:58.958Z,15.75
2018-03-11T04:00:30.933Z,15.75
2018-03-11T04:03:02.204Z,16.25
2018-03-11T04:05:33.888Z,15.50
2018-03-11T04:08:04.970Z,14.75
2018-03-11T04:10:36.809Z,15.75
2018-03-11T04:13:09.456Z,15.25
2018-03-11T04:15:41.203Z,15.00
2018-03-11T04:18:12.416Z,15.75
2018-03-11T04:20:43.566Z,17.25
2018-03-11T04:23:14.906Z,14.75
2018-03-11T04:25:50.489Z,15.25
2018-03-11T04:28:21.760Z,14.00
2018-03-11T04:30:53.380Z,13.25
2018-03-11T04:33:30.486Z,17.00
2018-03-11T04:36:01.218Z,12.75
2018-03-11T04:38:33.285Z,12.50
2018-03-11T04:41:04.176Z,13.00
2018-03-11T04:43:35.210Z,13.25
2018-03-11T04:46:07.543Z,16.75
2018-03-11T04:48:38.520Z,14.75
2018-03-11T04:51:12.801Z,15.25
2018-03-11T04:53:44.325Z,14.75
2018-03-11T04:56:17.312Z,13.75
2018-03-11T04:58:48.179Z,14.25
2018-03-11T05:04:03.166Z,13.50
2018-03-11T05:06:34.309Z,16.25
2018-03-11T05:09:05.154Z,13.75
2018-03-11T05:11:36.100Z,17.00
2018-03-11T05:14:07.076Z,15.50
2018-03-11T05:16:39.574Z,15.75
2018-03-11T05:19:10.778Z,16.00
2018-03-11T05:21:42.743Z,16.25
2018-03-11T05:24:13.752Z,15.25
2018-03-11T05:26:47.311Z,17.00
2018-03-11T05:29:18.403Z,16.75
2018-03-11T05:31:49.138Z,16.50
2018-03-11T05:34:20.174Z,17.25
2018-03-11T05:36:51.220Z,15.00
2018-03-11T05:39:23.314Z,13.00
2018-03-11T05:41:54.268Z,17.75
2018-03-11T05:44:25.500Z,15.25
2018-03-11T05:46:56.375Z,16.00
2018-03-11T05:49:27.843Z,15.75
2018-03-11T05:52:00.026Z,16.00
2018-03-11T05:54:31.140Z,15.25
2018-03-11T05:57:02.593Z,15.50
2018-03-11T05:59:38.601Z,13.25
2018-03-11T06:02:11.238Z,16.75
2018-03-11T06:05:02.102Z,15.50
2018-03-11T06:07:34.149Z,21.50
2018-03-11T06:10:05.927Z,15.00
2018-03-11T06:12:37.642Z,16.00
2018-03-11T06:15:13.123Z,16.00
2018-03-11T06:17:45.061Z,16.00
2018-03-11T06:20:16.721Z,18.00
2018-03-11T06:22:48.273Z,16.00
2018-03-11T06:25:19.669Z,12.50
2018-03-11T06:27:51.244Z,38.50
2018-03-11T06:30:26.215Z,15.25
2018-03-11T06:32:58.917Z,13.25
2018-03-11T06:35:30.794Z,28.50
2018-03-11T06:38:03.153Z,14.75
2018-03-11T06:40:35.389Z,15.75
2018-03-11T06:43:07.407Z,16.25
2018-03-11T06:45:39.750Z,15.25
2018-03-11T06:48:11.490Z,16.75
2018-03-11T06:50:44.056Z,14.00
2018-03-11T06:53:15.860Z,13.00
2018-03-11T06:55:49.045Z,16.00
2018-03-11T06:58:20.486Z,16.00
2018-03-11T07:00:56.861Z,13.75
2018-03-11T07:03:28.940Z,16.50
2018-03-11T07:06:01.707Z,15.50
2018-03-11T07:08:33.685Z,15.50
2018-03-11T07:11:08.189Z,13.00
2018-03-11T07:13:40.707Z,12.00
2018-03-11T07:16:12.728Z,14.75
2018-03-11T07:18:48.365Z,13.50
2018-03-11T07:21:19.589Z,13.00
2018-03-11T07:23:51.613Z,15.00
2018-03-11T07:26:26.000Z,13.00
2018-03-11T07:28:58.855Z,14.00
2018-03-11T07:31:30.538Z,27.50
2018-03-11T07:34:02.332Z,13.50
2018-03-11T07:36:34.474Z,12.75
2018-03-11T07:39:06.942Z,13.75
2018-03-11T07:41:38.387Z,13.25
2018-03-11T07:44:09.846Z,12.25
2018-03-11T07:55:30.990Z,12.50
2018-03-11T07:58:13.623Z,12.00
2018-03-11T08:00:45.865Z,13.00
2018-03-11T08:03:17.131Z,11.75
2018-03-11T08:05:48.817Z,11.75
2018-03-11T08:08:21.227Z,13.25
2018-03-11T08:10:53.803Z,15.00
2018-03-11T08:13:25.887Z,13.75
2018-03-11T08:15:58.627Z,13.25
2018-03-11T08:18:30.314Z,13.50
2018-03-11T08:21:01.847Z,11.75
2018-03-11T08:23:37.906Z,12.00
2018-03-11T08:26:31.921Z,13.00
2018-03-11T08:29:03.359Z,14.00
2018-03-11T08:31:45.983Z,16.75
2018-03-11T08:34:18.436Z,13.75
2018-03-11T08:36:49.608Z,13.50
2018-03-11T08:39:22.693Z,15.25
2018-03-11T08:41:54.952Z,14.00
2018-03-11T08:44:26.065Z,15.25
2018-03-11T08:46:58.547Z,15.25
2018-03-11T08:49:30.429Z,13.50
2018-03-11T08:52:01.505Z,14.00
2018-03-11T08:54:32.526Z,14.00
2018-03-11T08:57:03.875Z,14.50
2018-03-11T08:59:35.166Z,14.00
2018-03-11T09:02:06.703Z,15.00
2018-03-11T09:04:38.608Z,15.25
2018-03-11T09:07:09.897Z,13.25
2018-03-11T09:09:40.896Z,13.50
2018-03-11T09:12:12.845Z,14.25
2018-03-11T09:14:44.455Z,13.00
2018-03-11T09:17:16.419Z,14.00
2018-03-11T09:19:49.125Z,11.00
2018-03-11T09:22:22.103Z,10.75
2018-03-11T09:24:54.065Z,12.75
2018-03-11T09:36:15.211Z,10.75
2018-03-11T09:38:46.851Z,14.25
2018-03-11T09:41:19.235Z,11.75
2018-03-11T09:43:51.724Z,14.50
2018-03-11T09:46:26.060Z,10.25
2018-03-11T09:49:02.601Z,11.00
2018-03-11T09:51:36.172Z,11.50
2018-03-11T09:54:09.647Z,11.75
2018-03-11T09:56:43.252Z,13.25
2018-03-11T09:59:21.255Z,14.25
2018-03-11T10:01:54.083Z,13.75
2018-03-11T10:04:26.208Z,12.00
2018-03-11T10:06:58.605Z,11.50
2018-03-11T10:09:35.421Z,11.25
2018-03-11T10:12:07.099Z,11.00
2018-03-11T10:14:39.777Z,11.50
2018-03-11T10:17:12.835Z,10.00
2018-03-11T10:19:45.620Z,10.25
2018-03-11T10:22:17.109Z,9.50
2018-03-11T10:24:50.300Z,9.75
2018-03-11T10:27:41.885Z,8.50
2018-03-11T10:30:27.758Z,11.00
2018-03-11T10:33:00.678Z,10.25
2018-03-11T10:35:32.224Z,7.25
2018-03-11T10:38:03.516Z,8.75
2018-03-11T10:40:38.526Z,9.75
2018-03-11T10:43:10.031Z,7.75
2018-03-11T10:45:41.737Z,6.75
2018-03-11T10:48:17.219Z,7.50
2018-03-11T10:50:49.207Z,6.75
2018-03-11T10:53:22.295Z,6.25
2018-03-11T10:55:55.666Z,6.75
2018-03-11T10:58:27.220Z,8.00
2018-03-11T11:01:05.405Z,7.50
2018-03-11T11:03:41.005Z,7.75
2018-03-11T11:06:12.686Z,8.50
2018-03-11T11:08:44.801Z,9.00
2018-03-11T11:11:19.322Z,8.75
2018-03-11T11:13:53.106Z,8.00
2018-03-11T11:16:26.305Z,8.00
2018-03-11T11:18:58.908Z,7.00
2018-03-11T11:21:32.649Z,7.00
2018-03-11T11:24:08.237Z,6.50
2018-03-11T11:26:46.578Z,5.25
2018-03-11T11:29:22.586Z,5.75
2018-03-11T11:31:54.723Z,5.75
2018-03-11T11:34:25.627Z,3.50
2018-03-11T11:36:59.086Z,5.25
2018-03-11T11:39:33.421Z,4.00
2018-03-11T11:42:06.766Z,4.00
2018-03-11T11:44:55.035Z,3.25
2018-03-11T11:47:28.842Z,3.25
2018-03-11T11:50:07.354Z,4.00
2018-03-11T11:52:38.934Z,4.00
2018-03-11T11:55:11.367Z,4.00
2018-03-11T11:57:43.490Z,5.75
2018-03-11T12:00:21.559Z,3.75
2018-03-11T12:02:57.752Z,3.25
2018-03-11T12:05:32.556Z,4.00
2018-03-11T12:08:35.778Z,3.50
2018-03-11T12:11:14.009Z,3.75
2018-03-11T12:13:50.599Z,4.00
2018-03-11T12:16:26.594Z,4.50
2018-03-11T12:18:58.568Z,4.00
2018-03-11T12:21:32.692Z,3.75
2018-03-11T12:26:44.999Z,4.00
2018-03-11T12:29:17.356Z,5.00
2018-03-11T12:31:53.010Z,3.00
2018-03-11T12:34:24.436Z,6.75
2018-03-11T12:37:07.883Z,3.00
2018-03-11T12:39:39.613Z,3.00
2018-03-11T12:42:11.456Z,2.00
2018-03-11T12:44:43.741Z,3.00
2018-03-11T12:47:16.474Z,3.00
2018-03-11T12:49:51.082Z,3.00
2018-03-11T12:52:29.105Z,3.00
2018-03-11T12:55:00.681Z,3.00
2018-03-11T12:57:39.396Z,2.50
2018-03-11T13:00:16.214Z,3.00
2018-03-11T13:02:52.226Z,2.25
2018-03-11T13:05:27.336Z,2.25
2018-03-11T13:08:06.158Z,2.25
2018-03-11T13:10:41.309Z,2.00
2018-03-11T13:13:25.139Z,4.00
2018-03-11T13:16:01.599Z,1.75
2018-03-11T13:18:35.073Z,3.00
2018-03-11T13:21:12.546Z,2.00
2018-03-11T13:23:45.937Z,2.00
2018-03-11T13:26:35.489Z,2.00
2018-03-11T13:29:07.613Z,2.00
2018-03-11T13:31:48.904Z,2.00
2018-03-11T13:34:30.720Z,2.25
2018-03-11T13:37:18.626Z,2.00
2018-03-11T13:41:04.349Z,2.00
2018-03-11T13:43:38.148Z,3.50
2018-03-11T13:47:16.269Z,3.25
2018-03-11T13:49:53.412Z,2.00
2018-03-11T13:54:40.876Z,2.00
2018-03-11T13:57:24.289Z,1.00
2018-03-11T14:00:06.200Z,2.00
2018-03-11T14:02:41.956Z,3.00
2018-03-11T14:05:17.132Z,1.75
2018-03-11T14:08:07.474Z,2.00
2018-03-11T14:10:41.147Z,3.00
2018-03-11T14:13:15.693Z,1.25
2018-03-11T14:15:49.060Z,3.00
2018-03-11T14:18:23.274Z,2.25
2018-03-11T14:20:58.428Z,2.00
2018-03-11T14:23:32.864Z,2.00
2018-03-11T14:26:05.638Z,4.00
2018-03-11T14:28:40.772Z,1.75
2018-03-11T14:31:18.147Z,2.50
2018-03-11T14:33:58.695Z,2.00
2018-03-11T14:36:33.106Z,7.50
2018-03-11T14:39:10.739Z,3.00
2018-03-11T14:41:43.814Z,2.50
2018-03-11T14:44:15.643Z,2.00
2018-03-11T14:46:49.904Z,2.75
2018-03-11T14:49:24.452Z,1.75
2018-03-11T14:52:14.546Z,2.00
2018-03-11T14:55:24.882Z,2.00
2018-03-11T14:58:12.553Z,2.50
2018-03-11T15:00:46.189Z,2.25
2018-03-11T15:03:17.951Z,2.00
2018-03-11T15:05:50.623Z,2.50
2018-03-11T15:08:25.371Z,1.25
2018-03-11T15:11:05.975Z,2.00
2018-03-11T15:13:39.412Z,1.75
2018-03-11T15:16:15.352Z,2.00
2018-03-11T15:18:47.501Z,1.00
2018-03-11T15:21:18.824Z,1.25
2018-03-11T15:23:51.742Z,2.00
2018-03-11T15:26:23.600Z,3.00
2018-03-11T15:28:56.034Z,2.00
2018-03-11T15:31:28.155Z,2.75
2018-03-11T15:34:01.507Z,2.50
2018-03-11T15:36:35.319Z,3.00
2018-03-11T15:39:07.894Z,3.00
2018-03-11T15:41:40.646Z,2.00
2018-03-11T15:44:14.150Z,1.75
2018-03-11T15:46:47.664Z,2.00
2018-03-11T15:49:25.139Z,2.00
2018-03-11T15:52:00.093Z,3.00
2018-03-11T15:54:32.821Z,2.00
2018-03-11T15:57:06.574Z,2.50
2018-03-11T15:59:40.232Z,3.00
2018-03-11T16:02:17.118Z,2.00
2018-03-11T16:04:50.169Z,2.00
2018-03-11T16:07:24.283Z,2.00
2018-03-11T16:10:00.564Z,2.50
2018-03-11T16:12:36.416Z,2.00
2018-03-11T16:15:23.407Z,2.00
2018-03-11T16:17:56.034Z,2.75
2018-03-11T16:20:30.002Z,3.00
2018-03-11T16:23:03.207Z,2.00
2018-03-11T16:25:35.563Z,2.50
2018-03-11T16:28:09.138Z,1.75
2018-03-11T16:30:44.373Z,2.00
2018-03-11T16:33:20.106Z,2.00
2018-03-11T16:35:52.994Z,2.00
2018-03-11T16:38:27.278Z,2.00
2018-03-11T16:41:00.107Z,1.75
2018-03-11T16:43:34.153Z,2.00
2018-03-11T16:46:09.438Z,3.00
2018-03-11T16:48:43.163Z,2.00
2018-03-11T16:52:03.538Z,2.00
2018-03-11T16:54:35.885Z,2.25
2018-03-11T16:57:09.512Z,3.00
2018-03-11T16:59:43.890Z,3.25
2018-03-11T17:02:18.432Z,3.00
2018-03-11T17:04:54.617Z,2.00
2018-03-11T17:07:29.939Z,3.00
2018-03-11T17:10:06.113Z,3.00
2018-03-11T17:12:45.378Z,8.50
2018-03-11T17:15:20.158Z,6.50
2018-03-11T17:18:13.083Z,5.75
2018-03-11T17:20:49.073Z,5.75
2018-03-11T17:23:23.756Z,5.75
2018-03-11T17:25:58.787Z,5.25
2018-03-11T17:28:46.257Z,3.00
2018-03-11T17:31:38.711Z,3.25
2018-03-11T17:34:14.037Z,3.50
2018-03-11T17:36:53.301Z,4.00
2018-03-11T17:39:31.335Z,4.50
2018-03-11T17:42:19.791Z,5.00
2018-03-11T17:45:06.038Z,7.00
2018-03-11T17:47:39.746Z,6.00
2018-03-11T17:50:15.791Z,6.50
2018-03-11T17:52:49.120Z,6.50
2018-03-11T17:55:24.947Z,6.00
2018-03-11T17:58:13.143Z,7.25
2018-03-11T18:00:50.360Z,8.50
2018-03-11T18:03:25.720Z,6.75
2018-03-11T18:06:02.659Z,7.00
2018-03-11T18:08:37.586Z,6.25
2018-03-11T18:11:15.073Z,6.50
2018-03-11T18:14:02.198Z,7.75
2018-03-11T18:16:37.179Z,6.00
2018-03-11T18:19:12.788Z,6.50
2018-03-11T18:21:45.298Z,8.00
2018-03-11T18:24:20.160Z,7.25
2018-03-11T18:26:53.637Z,7.25
2018-03-11T18:29:28.024Z,8.00
2018-03-11T18:32:03.564Z,10.25
2018-03-11T18:34:36.979Z,8.00
2018-03-11T18:37:08.993Z,8.00
2018-03-11T18:45:52.458Z,10.00
2018-03-11T18:48:25.724Z,9.75
2018-03-11T18:50:58.953Z,7.25
2018-03-11T18:53:32.721Z,10.25
2018-03-11T18:56:09.842Z,7.75
2018-03-11T18:58:45.785Z,10.00
2018-03-11T19:01:19.719Z,8.00
2018-03-11T19:03:53.619Z,10.00
2018-03-11T19:06:27.024Z,7.50
2018-03-11T19:09:02.267Z,9.25
2018-03-11T19:11:34.687Z,8.00
2018-03-11T19:14:07.038Z,8.75
2018-03-11T19:16:40.764Z,8.75
2018-03-11T19:19:14.972Z,8.00
2018-03-11T19:21:47.953Z,9.25
2018-03-11T19:24:21.099Z,7.00
2018-03-11T19:26:57.854Z,6.00
2018-03-11T19:29:33.918Z,8.75
2018-03-11T19:32:10.596Z,9.25
2018-03-11T19:34:45.743Z,7.25
2018-03-11T19:37:27.356Z,10.00
2018-03-11T19:40:03.843Z,8.75
2018-03-11T19:42:38.697Z,7.50
2018-03-11T19:45:15.575Z,8.25
2018-03-11T19:47:50.292Z,8.75
2018-03-11T19:50:24.484Z,7.00
2018-03-11T19:53:04.392Z,9.50
2018-03-11T19:55:41.055Z,9.00
2018-03-11T19:58:15.713Z,10.00
2018-03-11T20:00:49.908Z,9.75
2018-03-11T20:03:26.544Z,10.25
2018-03-11T20:06:03.036Z,11.00
2018-03-11T20:08:42.937Z,10.00
2018-03-11T20:11:17.015Z,11.50
2018-03-11T20:13:49.287Z,11.50
2018-03-11T20:16:22.684Z,12.25
2018-03-11T20:18:56.209Z,11.25
2018-03-11T20:21:33.779Z,8.75
2018-03-11T20:24:11.426Z,9.00
2018-03-11T20:26:47.325Z,11.25
2018-03-11T20:29:22.842Z,9.00
2018-03-11T20:31:55.894Z,9.00
2018-03-11T20:34:27.975Z,7.25
2018-03-11T20:37:02.392Z,9.00
2018-03-11T20:39:34.297Z,9.25
2018-03-11T20:42:10.654Z,7.50
2018-03-11T20:44:44.920Z,6.00
2018-03-11T20:47:20.525Z,9.00
2018-03-11T20:49:55.756Z,9.25
2018-03-11T20:52:31.624Z,9.00
2018-03-11T20:55:06.390Z,8.75
2018-03-11T20:57:38.949Z,8.25
2018-03-11T21:00:14.347Z,9.00
2018-03-11T21:02:49.164Z,8.75
2018-03-11T21:05:28.034Z,9.00
2018-03-11T21:08:01.831Z,9.00
2018-03-11T21:10:33.608Z,8.75
2018-03-11T21:13:06.116Z,9.00
2018-03-11T21:15:39.053Z,9.00
2018-03-11T21:18:12.179Z,9.00
2018-03-11T21:20:44.225Z,7.75
2018-03-11T21:23:16.641Z,8.50
2018-03-11T21:25:47.881Z,10.00
2018-03-11T21:28:19.481Z,9.25
2018-03-11T21:30:53.035Z,8.75
2018-03-11T21:33:24.999Z,10.00
2018-03-11T21:35:57.037Z,9.50
2018-03-11T21:38:31.363Z,9.00
2018-03-11T21:41:04.673Z,9.00
2018-03-11T21:43:36.020Z,6.00
2018-03-11T21:46:08.800Z,9.00
2018-03-11T21:48:40.920Z,9.00
2018-03-11T21:51:12.417Z,9.75
2018-03-11T21:53:43.836Z,8.75
2018-03-11T21:56:15.402Z,10.00
2018-03-11T21:58:47.292Z,8.75
2018-03-11T22:01:19.311Z,8.50
2018-03-11T22:03:50.353Z,9.25
2018-03-11T22:06:21.683Z,9.00
2018-03-11T22:08:53.033Z,10.00
2018-03-11T22:11:24.161Z,10.25
2018-03-11T22:13:55.560Z,11.00
2018-03-11T22:16:27.081Z,9.00
2018-03-11T22:18:58.049Z,9.75
2018-03-11T22:21:28.934Z,9.00
2018-03-11T22:24:00.734Z,8.50
2018-03-11T22:26:33.254Z,9.50
2018-03-11T22:29:04.827Z,9.75
2018-03-11T22:31:36.118Z,9.00
2018-03-11T22:34:07.511Z,9.00
2018-03-11T22:36:38.481Z,10.00
2018-03-11T22:39:09.538Z,9.25
2018-03-11T22:41:40.952Z,9.25
2018-03-11T22:44:12.065Z,9.25
2018-03-11T22:46:43.714Z,9.00
2018-03-11T22:49:15.588Z,9.25
2018-03-11T22:51:47.877Z,8.50
2018-03-11T22:54:19.759Z,8.25
2018-03-11T22:56:50.746Z,9.25
2018-03-11T22:59:21.838Z,9.25
2018-03-11T23:01:55.458Z,10.00
2018-03-11T23:04:26.830Z,8.00
2018-03-11T23:06:59.018Z,11.75
2018-03-11T23:09:31.061Z,11.00
2018-03-11T23:12:03.933Z,9.25
2018-03-11T23:14:34.969Z,9.25
2018-03-11T23:17:06.615Z,9.00
2018-03-11T23:19:37.683Z,9.00
2018-03-11T23:22:14.530Z,7.25
2018-03-11T23:24:45.678Z,9.25
2018-03-11T23:27:17.000Z,11.50
2018-03-11T23:29:47.952Z,8.00
2018-03-11T23:32:18.884Z,9.00
2018-03-11T23:34:50.675Z,9.00
2018-03-11T23:37:22.867Z,9.00
2018-03-11T23:42:38.968Z,9.00
2018-03-11T23:45:12.605Z,8.00
2018-03-11T23:47:44.592Z,8.00
2018-03-11T23:50:15.567Z,9.50
2018-03-11T23:52:46.970Z,9.25
2018-03-11T23:55:18.282Z,9.75
2018-03-11T23:57:49.472Z,8.50
